createdAt,value
2022-09-15T00:01:11.084Z,26.00
2022-09-15T00:03:38.763Z,26.00
2022-09-15T00:06:06.848Z,26.00
2022-09-15T00:08:34.116Z,25.90
2022-09-15T00:11:11.322Z,25.90
2022-09-15T00:13:39.906Z,25.90
2022-09-15T00:16:08.262Z,25.90
2022-09-15T00:18:37.436Z,26.00
2022-09-15T00:21:10.227Z,25.90
2022-09-15T00:23:38.337Z,25.90
2022-09-15T00:26:14.876Z,25.90
2022-09-15T00:28:42.926Z,25.90
2022-09-15T00:31:12.744Z,25.80
2022-09-15T00:33:40.418Z,25.80
2022-09-15T00:36:10.978Z,25.80
2022-09-15T00:38:38.875Z,25.80
2022-09-15T00:41:07.490Z,25.70
2022-09-15T00:43:49.653Z,25.70
2022-09-15T00:46:19.242Z,25.70
2022-09-15T00:48:57.318Z,25.70
2022-09-15T00:51:44.781Z,25.60
2022-09-15T00:54:17.743Z,25.60
2022-09-15T00:56:48.044Z,25.50
2022-09-15T00:59:24.695Z,25.50
2022-09-15T01:02:04.527Z,25.50
2022-09-15T01:04:32.748Z,25.40
2022-09-15T01:07:05.658Z,25.40
2022-09-15T01:09:45.630Z,25.40
2022-09-15T01:12:13.320Z,25.40
2022-09-15T01:14:40.499Z,25.30
2022-09-15T01:17:07.620Z,25.30
2022-09-15T01:20:01.022Z,25.30
2022-09-15T01:22:31.014Z,25.30
2022-09-15T01:25:19.052Z,25.30
2022-09-15T01:28:05.288Z,25.30
2022-09-15T01:30:39.786Z,25.30
2022-09-15T01:33:31.910Z,25.30
2022-09-15T01:36:13.277Z,25.20
2022-09-15T01:38:53.093Z,25.20
2022-09-15T01:41:51.045Z,25.20
2022-09-15T01:44:32.373Z,25.10
2022-09-15T01:47:06.024Z,25.10
2022-09-15T01:49:47.826Z,25.00
2022-09-15T01:52:18.177Z,25.00
2022-09-15T01:54:49.227Z,25.00
2022-09-15T01:57:21.370Z,25.00
2022-09-15T01:59:50.456Z,25.00
2022-09-15T02:02:28.078Z,24.90
2022-09-15T02:05:06.504Z,24.90
2022-09-15T02:08:05.257Z,24.90
2022-09-15T02:10:43.385Z,25.00
2022-09-15T02:13:19.072Z,25.00
2022-09-15T02:15:53.978Z,25.00
2022-09-15T02:18:34.726Z,25.00
2022-09-15T02:21:15.175Z,25.00
2022-09-15T02:23:48.674Z,25.00
2022-09-15T02:26:20.096Z,25.00
2022-09-15T02:28:49.413Z,25.00
2022-09-15T02:31:18.838Z,24.90
2022-09-15T02:33:51.437Z,24.90
2022-09-15T02:36:21.019Z,24.90
2022-09-15T02:38:54.361Z,24.80
2022-09-15T02:41:21.583Z,24.80
2022-09-15T02:43:49.546Z,24.80
2022-09-15T02:46:20.133Z,24.80
2022-09-15T02:48:47.750Z,24.80
2022-09-15T02:51:16.962Z,24.90
2022-09-15T02:53:45.710Z,24.80
2022-09-15T02:56:13.349Z,24.80
2022-09-15T02:58:40.709Z,24.80
2022-09-15T03:01:10.295Z,24.80
2022-09-15T03:03:42.284Z,24.80
2022-09-15T03:06:16.763Z,24.80
2022-09-15T03:08:54.507Z,24.80
2022-09-15T03:11:23.861Z,24.90
2022-09-15T03:13:56.321Z,24.90
2022-09-15T03:16:25.487Z,24.90
2022-09-15T03:18:55.799Z,24.80
2022-09-15T03:21:23.311Z,24.80
2022-09-15T03:23:50.609Z,24.90
2022-09-15T03:26:18.126Z,24.90
2022-09-15T03:28:45.998Z,24.90
2022-09-15T03:31:13.470Z,24.80
2022-09-15T03:33:40.763Z,24.80
2022-09-15T03:36:09.129Z,24.80
2022-09-15T03:38:36.395Z,24.80
2022-09-15T03:41:07.860Z,24.80
2022-09-15T03:43:36.534Z,24.80
2022-09-15T03:46:05.899Z,24.80
2022-09-15T03:48:35.634Z,24.80
2022-09-15T03:51:06.025Z,24.70
2022-09-15T03:53:34.468Z,24.70
2022-09-15T03:56:26.235Z,24.70
2022-09-15T03:58:54.265Z,24.60
2022-09-15T04:01:21.673Z,24.60
2022-09-15T04:03:51.070Z,24.60
2022-09-15T04:06:21.003Z,24.50
2022-09-15T04:08:49.107Z,24.50
2022-09-15T04:11:18.080Z,24.50
2022-09-15T04:13:47.121Z,24.50
2022-09-15T04:16:17.652Z,24.50
2022-09-15T04:18:45.662Z,24.40
2022-09-15T04:21:15.293Z,24.40
2022-09-15T04:23:43.756Z,24.40
2022-09-15T04:26:20.034Z,24.40
2022-09-15T04:28:47.247Z,24.40
2022-09-15T04:31:16.274Z,24.40
2022-09-15T04:33:44.897Z,24.40
2022-09-15T04:36:15.343Z,24.50
2022-09-15T04:38:43.029Z,24.40
2022-09-15T04:41:10.514Z,24.40
2022-09-15T04:43:38.060Z,24.50
2022-09-15T04:46:05.527Z,24.50
2022-09-15T04:48:32.897Z,24.60
2022-09-15T04:51:05.440Z,24.60
2022-09-15T04:53:33.254Z,24.60
2022-09-15T04:56:11.976Z,24.60
2022-09-15T04:58:41.672Z,24.50
2022-09-15T05:01:14.677Z,24.60
2022-09-15T05:03:42.717Z,24.60
2022-09-15T05:06:13.223Z,24.60
2022-09-15T05:08:40.887Z,24.60
2022-09-15T05:11:11.311Z,24.60
2022-09-15T05:13:40.343Z,24.60
2022-09-15T05:16:18.645Z,24.70
2022-09-15T05:18:47.923Z,24.70
2022-09-15T05:21:16.979Z,24.70
2022-09-15T05:23:44.687Z,24.80
2022-09-15T05:26:13.752Z,24.80
2022-09-15T05:28:41.788Z,24.90
2022-09-15T05:31:14.228Z,24.90
2022-09-15T05:33:41.549Z,24.90
2022-09-15T05:36:08.940Z,25.00
2022-09-15T05:38:36.128Z,25.00
2022-09-15T05:41:08.614Z,25.10
2022-09-15T05:43:37.264Z,25.10
2022-09-15T05:46:04.633Z,25.10
2022-09-15T05:48:32.606Z,25.20
2022-09-15T05:50:59.915Z,25.20
2022-09-15T05:53:27.721Z,25.30
2022-09-15T05:56:00.116Z,25.30
2022-09-15T05:58:27.953Z,25.30
2022-09-15T06:00:55.754Z,25.40
2022-09-15T06:03:28.694Z,25.50
2022-09-15T06:06:02.287Z,25.60
2022-09-15T06:08:41.407Z,25.60
2022-09-15T06:11:13.254Z,25.70
2022-09-15T06:13:40.841Z,25.80
2022-09-15T06:16:11.257Z,25.90
2022-09-15T06:18:39.552Z,25.90
2022-09-15T06:21:12.757Z,25.90
2022-09-15T06:23:40.625Z,26.00
2022-09-15T06:26:16.906Z,26.10
2022-09-15T06:28:52.168Z,26.20
2022-09-15T06:31:21.278Z,26.30
2022-09-15T06:33:54.104Z,26.40
2022-09-15T06:36:23.062Z,26.50
2022-09-15T06:38:51.703Z,26.50
2022-09-15T06:41:19.166Z,26.60
2022-09-15T06:43:49.233Z,26.70
2022-09-15T06:46:25.288Z,26.80
2022-09-15T06:48:54.011Z,26.90
2022-09-15T06:51:23.633Z,27.10
2022-09-15T06:53:51.288Z,27.20
2022-09-15T06:56:21.503Z,27.30
2022-09-15T06:58:50.443Z,27.40
2022-09-15T07:01:25.961Z,27.50
2022-09-15T07:03:53.823Z,27.70
2022-09-15T07:06:22.475Z,27.80
2022-09-15T07:08:50.960Z,28.00
2022-09-15T07:11:18.754Z,28.00
2022-09-15T07:13:48.300Z,28.10
2022-09-15T07:16:15.762Z,28.20
2022-09-15T07:18:43.674Z,28.30
2022-09-15T07:21:16.696Z,28.40
2022-09-15T07:23:45.174Z,28.40
2022-09-15T07:26:13.506Z,28.40
2022-09-15T07:28:42.552Z,28.50
2022-09-15T07:31:12.690Z,28.50
2022-09-15T07:33:40.181Z,28.50
2022-09-15T07:36:10.198Z,28.60
2022-09-15T07:38:41.807Z,28.60
2022-09-15T07:41:11.899Z,28.60
2022-09-15T07:43:39.616Z,28.60
2022-09-15T07:46:07.500Z,28.70
2022-09-15T07:48:34.903Z,28.80
2022-09-15T07:51:03.016Z,28.80
2022-09-15T07:53:30.988Z,28.90
2022-09-15T07:55:58.349Z,29.10
2022-09-15T07:58:25.903Z,29.20
2022-09-15T08:00:53.072Z,29.30
2022-09-15T08:03:20.329Z,29.40
2022-09-15T08:05:47.627Z,29.60
2022-09-15T08:08:14.874Z,29.70
2022-09-15T08:10:42.803Z,29.60
2022-09-15T08:13:09.884Z,29.60
2022-09-15T08:15:38.093Z,29.60
2022-09-15T08:18:06.407Z,29.70
2022-09-15T08:20:33.706Z,30.00
2022-09-15T08:23:00.929Z,30.10
2022-09-15T08:25:28.050Z,30.30
2022-09-15T08:27:56.552Z,30.40
2022-09-15T08:30:23.824Z,30.40
2022-09-15T08:32:54.056Z,30.50
2022-09-15T08:35:21.255Z,30.70
2022-09-15T08:37:48.378Z,30.70
2022-09-15T08:40:21.149Z,30.80
2022-09-15T08:42:52.015Z,31.00
2022-09-15T08:45:26.183Z,31.20
2022-09-15T08:47:59.991Z,31.40
2022-09-15T08:50:31.223Z,31.40
2022-09-15T08:53:09.895Z,31.40
2022-09-15T08:55:58.526Z,31.60
2022-09-15T08:58:38.244Z,31.70
2022-09-15T09:01:08.903Z,31.90
2022-09-15T09:03:40.735Z,32.10
2022-09-15T09:06:43.098Z,32.20
2022-09-15T09:09:35.415Z,32.40
2022-09-15T09:12:26.698Z,32.70
2022-09-15T09:15:26.005Z,32.80
2022-09-15T09:18:20.786Z,32.80
2022-09-15T09:21:12.289Z,32.80
2022-09-15T09:23:59.927Z,32.80
2022-09-15T09:26:29.078Z,33.00
2022-09-15T09:28:59.855Z,33.10
2022-09-15T09:31:29.005Z,33.10
2022-09-15T09:34:17.793Z,33.10
2022-09-15T09:36:45.088Z,33.30
2022-09-15T09:39:15.224Z,33.40
2022-09-15T09:41:42.750Z,33.50
2022-09-15T09:44:15.103Z,33.70
2022-09-15T09:46:43.501Z,33.80
2022-09-15T09:49:29.682Z,33.80
2022-09-15T09:52:03.570Z,33.80
2022-09-15T09:54:33.225Z,33.60
2022-09-15T09:57:27.745Z,33.70
2022-09-15T09:59:55.742Z,33.90
2022-09-15T10:02:29.534Z,34.00
2022-09-15T10:05:06.945Z,34.00
2022-09-15T10:07:40.220Z,33.90
2022-09-15T10:10:18.406Z,34.10
2022-09-15T10:12:45.901Z,34.30
2022-09-15T10:15:25.831Z,34.40
2022-09-15T10:17:55.507Z,34.40
2022-09-15T10:20:50.291Z,34.50
2022-09-15T10:23:17.791Z,34.60
2022-09-15T10:26:01.057Z,34.60
2022-09-15T10:28:29.317Z,34.80
2022-09-15T10:31:00.943Z,34.80
2022-09-15T10:33:31.491Z,34.90
2022-09-15T10:36:05.986Z,35.00
2022-09-15T10:38:49.185Z,35.00
2022-09-15T10:41:28.945Z,35.20
2022-09-15T10:44:23.159Z,35.30
2022-09-15T10:47:06.734Z,35.40
2022-09-15T10:49:58.831Z,35.60
2022-09-15T10:52:49.279Z,35.30
2022-09-15T10:55:16.434Z,35.40
2022-09-15T10:57:46.647Z,35.20
2022-09-15T11:00:22.540Z,35.40
2022-09-15T11:03:11.126Z,35.80
2022-09-15T11:06:13.572Z,36.30
2022-09-15T11:09:13.785Z,36.90
2022-09-15T11:12:07.472Z,36.90
2022-09-15T11:14:57.996Z,36.60
2022-09-15T11:18:00.251Z,36.80
2022-09-15T11:20:56.348Z,37.30
2022-09-15T11:23:47.537Z,37.60
2022-09-15T11:26:59.426Z,37.50
2022-09-15T11:29:35.235Z,37.80
2022-09-15T11:32:17.968Z,38.00
2022-09-15T11:35:02.819Z,37.90
2022-09-15T11:37:40.264Z,38.20
2022-09-15T11:40:13.401Z,38.20
2022-09-15T11:43:06.214Z,38.40
2022-09-15T11:45:40.817Z,38.00
2022-09-15T11:48:25.895Z,37.60
2022-09-15T11:50:55.950Z,36.50
2022-09-15T11:54:03.185Z,36.90
2022-09-15T11:56:36.814Z,37.00
2022-09-15T11:59:31.028Z,37.20
2022-09-15T12:02:24.656Z,37.40
2022-09-15T12:05:12.486Z,36.80
2022-09-15T12:08:00.814Z,36.70
2022-09-15T12:10:38.362Z,36.70
2022-09-15T12:13:06.506Z,36.70
2022-09-15T12:15:34.024Z,36.40
2022-09-15T12:18:10.869Z,36.30
2022-09-15T12:21:09.907Z,36.00
2022-09-15T12:23:56.645Z,36.00
2022-09-15T12:26:26.549Z,35.70
2022-09-15T12:28:58.247Z,35.40
2022-09-15T12:31:27.600Z,35.90
2022-09-15T12:33:56.086Z,36.60
2022-09-15T12:36:44.718Z,37.10
2022-09-15T12:39:29.857Z,36.50
2022-09-15T12:42:31.567Z,36.10
2022-09-15T12:45:00.259Z,36.10
2022-09-15T12:47:31.912Z,36.40
2022-09-15T12:50:21.447Z,36.60
2022-09-15T12:52:56.176Z,36.30
2022-09-15T12:55:48.735Z,36.40
2022-09-15T12:58:27.892Z,36.60
2022-09-15T13:01:26.567Z,36.20
2022-09-15T13:03:55.334Z,36.20
2022-09-15T13:06:31.298Z,35.90
2022-09-15T13:09:07.565Z,36.60
2022-09-15T13:11:36.993Z,37.00
2022-09-15T13:14:04.661Z,37.30
2022-09-15T13:16:34.096Z,37.40
2022-09-15T13:19:08.012Z,37.30
2022-09-15T13:21:43.793Z,36.90
2022-09-15T13:24:20.485Z,36.70
2022-09-15T13:26:55.667Z,36.50
2022-09-15T13:29:24.995Z,36.40
2022-09-15T13:32:18.058Z,36.20
2022-09-15T13:35:16.525Z,35.80
2022-09-15T13:38:13.537Z,35.60
2022-09-15T13:41:34.420Z,35.90
2022-09-15T13:44:20.713Z,35.80
2022-09-15T13:46:59.914Z,35.50
2022-09-15T13:49:38.827Z,34.60
2022-09-15T13:52:33.678Z,33.90
2022-09-15T13:55:28.105Z,33.50
2022-09-15T14:01:00.308Z,32.80
2022-09-15T14:04:01.058Z,32.80
2022-09-15T14:06:33.915Z,32.70
2022-09-15T14:09:23.021Z,32.40
2022-09-15T14:11:54.036Z,32.40
2022-09-15T14:14:34.371Z,32.40
2022-09-15T14:17:03.242Z,32.40
2022-09-15T14:19:39.011Z,32.30
2022-09-15T14:22:35.873Z,32.20
2022-09-15T14:25:15.188Z,32.10
2022-09-15T14:27:47.611Z,32.10
2022-09-15T14:30:24.953Z,32.10
2022-09-15T14:33:00.701Z,32.00
2022-09-15T14:35:35.849Z,32.00
2022-09-15T14:38:03.402Z,31.90
2022-09-15T14:40:36.984Z,31.70
2022-09-15T14:43:26.249Z,31.50
2022-09-15T14:46:01.491Z,31.60
2022-09-15T14:48:34.424Z,31.50
2022-09-15T14:51:07.335Z,31.50
2022-09-15T14:53:54.225Z,31.50
2022-09-15T14:56:44.358Z,31.50
2022-09-15T14:59:31.622Z,31.60
2022-09-15T15:02:23.103Z,31.70
2022-09-15T15:08:16.141Z,31.80
2022-09-15T15:10:45.811Z,31.80
2022-09-15T15:13:17.667Z,31.80
2022-09-15T15:15:49.644Z,31.80
2022-09-15T15:18:40.482Z,31.80
2022-09-15T15:21:27.954Z,31.80
2022-09-15T15:23:55.560Z,31.80
2022-09-15T15:26:38.445Z,31.80
2022-09-15T15:29:43.289Z,31.70
2022-09-15T15:32:48.612Z,31.70
2022-09-15T15:35:20.286Z,31.70
2022-09-15T15:37:48.460Z,31.70
2022-09-15T15:40:23.355Z,31.60
2022-09-15T15:46:03.260Z,31.60
2022-09-15T15:48:38.592Z,31.60
2022-09-15T15:51:07.844Z,31.60
2022-09-15T15:53:36.357Z,31.60
2022-09-15T15:56:03.613Z,31.50
2022-09-15T15:58:31.467Z,31.50
2022-09-15T16:00:58.681Z,31.40
2022-09-15T16:03:26.175Z,31.40
2022-09-15T16:05:57.114Z,31.40
2022-09-15T16:08:29.635Z,31.30
2022-09-15T16:10:58.009Z,31.30
2022-09-15T16:13:25.942Z,31.20
2022-09-15T16:15:54.434Z,31.20
2022-09-15T16:18:21.840Z,31.10
2022-09-15T16:20:50.419Z,31.00
2022-09-15T16:23:19.630Z,30.90
2022-09-15T16:26:03.663Z,30.90
2022-09-15T16:28:31.823Z,30.80
2022-09-15T16:30:59.432Z,30.80
2022-09-15T16:33:26.961Z,30.70
2022-09-15T16:35:55.290Z,30.70
2022-09-15T16:38:25.939Z,30.60
2022-09-15T16:40:53.302Z,30.60
2022-09-15T16:43:22.006Z,30.50
2022-09-15T16:45:50.674Z,30.40
2022-09-15T16:48:18.411Z,30.40
2022-09-15T16:51:09.191Z,30.20
2022-09-15T16:53:38.560Z,30.20
2022-09-15T16:56:07.891Z,30.20
2022-09-15T16:58:35.073Z,30.10
2022-09-15T17:01:03.553Z,30.00
2022-09-15T17:03:31.273Z,29.90
2022-09-15T17:06:00.522Z,30.00
2022-09-15T17:08:29.803Z,30.00
2022-09-15T17:10:59.655Z,30.00
2022-09-15T17:13:30.524Z,29.90
2022-09-15T17:15:59.005Z,29.80
2022-09-15T17:18:27.274Z,29.70
2022-09-15T17:20:54.727Z,29.80
2022-09-15T17:23:25.372Z,29.80
2022-09-15T17:25:57.412Z,29.80
2022-09-15T17:28:27.701Z,29.80
2022-09-15T17:31:00.367Z,29.80
2022-09-15T17:33:29.305Z,29.80
2022-09-15T17:35:56.845Z,30.00
2022-09-15T17:38:25.086Z,30.00
2022-09-15T17:40:55.354Z,30.00
2022-09-15T17:43:25.366Z,30.10
2022-09-15T17:45:53.937Z,30.00
2022-09-15T17:48:22.642Z,30.00
2022-09-15T17:50:50.461Z,30.00
2022-09-15T17:53:21.458Z,29.90
2022-09-15T17:55:50.131Z,29.90
2022-09-15T17:58:17.717Z,29.80
2022-09-15T18:00:45.995Z,29.80
2022-09-15T18:03:16.183Z,29.70
2022-09-15T18:05:43.476Z,29.60
2022-09-15T18:08:10.950Z,29.60
2022-09-15T18:10:38.170Z,29.50
2022-09-15T18:13:07.139Z,29.50
2022-09-15T18:15:40.232Z,29.40
2022-09-15T18:18:10.963Z,29.40
2022-09-15T18:20:39.660Z,29.30
2022-09-15T18:23:06.890Z,29.30
2022-09-15T18:25:37.432Z,29.20
2022-09-15T18:28:06.521Z,29.20
2022-09-15T18:30:38.658Z,29.10
2022-09-15T18:33:06.326Z,29.10
2022-09-15T18:35:33.883Z,29.00
2022-09-15T18:38:01.917Z,29.00
2022-09-15T18:40:29.196Z,28.90
2022-09-15T18:42:59.471Z,28.90
2022-09-15T18:45:27.007Z,28.80
2022-09-15T18:47:58.422Z,28.80
2022-09-15T18:50:26.697Z,28.80
2022-09-15T18:52:55.123Z,28.80
2022-09-15T18:55:23.379Z,28.70
2022-09-15T18:57:50.990Z,28.70
2022-09-15T19:00:22.714Z,28.60
2022-09-15T19:02:55.579Z,28.60
2022-09-15T19:05:22.835Z,28.60
2022-09-15T19:07:50.112Z,28.60
2022-09-15T19:10:18.575Z,28.60
2022-09-15T19:12:45.897Z,28.60
2022-09-15T19:15:14.156Z,28.60
2022-09-15T19:17:42.807Z,28.50
2022-09-15T19:20:12.634Z,28.50
2022-09-15T19:22:41.089Z,28.50
2022-09-15T19:25:10.289Z,28.50
2022-09-15T19:27:38.686Z,28.40
2022-09-15T19:30:10.214Z,28.40
2022-09-15T19:32:39.220Z,28.40
2022-09-15T19:35:07.304Z,28.40
2022-09-15T19:37:37.509Z,28.30
2022-09-15T19:40:09.151Z,28.30
2022-09-15T19:42:38.318Z,28.30
2022-09-15T19:45:06.473Z,28.20
2022-09-15T19:47:34.289Z,28.20
2022-09-15T19:50:01.873Z,28.20
2022-09-15T19:52:29.440Z,28.20
2022-09-15T19:54:56.527Z,28.10
2022-09-15T19:57:24.134Z,28.10
2022-09-15T19:59:51.310Z,28.20
2022-09-15T20:02:18.785Z,28.20
2022-09-15T20:07:31.747Z,28.10
2022-09-15T20:09:58.896Z,28.10
2022-09-15T20:12:26.895Z,28.10
2022-09-15T20:14:54.385Z,28.10
2022-09-15T20:17:21.525Z,28.10
2022-09-15T20:19:48.959Z,28.00
2022-09-15T20:22:16.144Z,28.00
2022-09-15T20:24:43.496Z,28.00
2022-09-15T20:27:10.627Z,28.00
2022-09-15T20:29:38.872Z,28.00
2022-09-15T20:32:06.192Z,27.90
2022-09-15T20:34:33.316Z,27.90
2022-09-15T20:37:00.668Z,27.90
2022-09-15T20:39:27.872Z,27.80
2022-09-15T20:41:54.924Z,27.80
2022-09-15T20:44:22.132Z,27.80
2022-09-15T20:46:49.263Z,27.80
2022-09-15T20:49:16.763Z,27.80
2022-09-15T20:51:43.919Z,27.80
2022-09-15T20:54:11.397Z,27.70
2022-09-15T20:56:38.679Z,27.70
2022-09-15T20:59:10.247Z,27.60
2022-09-15T21:01:39.190Z,27.60
2022-09-15T21:04:10.905Z,27.50
2022-09-15T21:06:39.036Z,27.50
2022-09-15T21:09:07.120Z,27.50
2022-09-15T21:11:34.583Z,27.50
2022-09-15T21:14:02.603Z,27.50
2022-09-15T21:16:29.819Z,27.50
2022-09-15T21:18:58.254Z,27.40
2022-09-15T21:21:30.948Z,27.40
2022-09-15T21:24:07.056Z,27.30
2022-09-15T21:26:59.467Z,27.30
2022-09-15T21:29:28.859Z,27.20
2022-09-15T21:31:56.183Z,27.20
2022-09-15T21:34:24.141Z,27.20
2022-09-15T21:36:53.794Z,27.20
2022-09-15T21:39:21.448Z,27.20
2022-09-15T21:41:48.614Z,27.20
2022-09-15T21:44:16.011Z,27.20
2022-09-15T21:46:44.962Z,27.20
2022-09-15T21:49:12.082Z,27.20
2022-09-15T21:51:40.043Z,27.20
2022-09-15T21:54:07.212Z,27.20
2022-09-15T21:56:34.504Z,27.20
2022-09-15T21:59:03.725Z,27.10
2022-09-15T22:01:32.849Z,27.10
2022-09-15T22:04:02.755Z,27.10
2022-09-15T22:06:34.414Z,27.00
2022-09-15T22:09:04.312Z,27.00
2022-09-15T22:11:31.707Z,27.00
2022-09-15T22:13:59.232Z,27.00
2022-09-15T22:16:26.917Z,27.00
2022-09-15T22:18:54.423Z,27.00
2022-09-15T22:21:24.463Z,26.90
2022-09-15T22:23:53.975Z,26.90
2022-09-15T22:26:25.375Z,26.90
2022-09-15T22:28:53.464Z,26.80
2022-09-15T22:31:22.000Z,26.80
2022-09-15T22:33:49.576Z,26.80
2022-09-15T22:36:20.012Z,26.80
2022-09-15T22:38:47.508Z,26.70
2022-09-15T22:41:18.372Z,26.70
2022-09-15T22:43:49.105Z,26.70
2022-09-15T22:46:18.115Z,26.70
2022-09-15T22:48:45.281Z,26.60
2022-09-15T22:51:14.701Z,26.60
2022-09-15T22:53:42.472Z,26.60
2022-09-15T22:56:23.403Z,26.60
2022-09-15T22:58:50.852Z,26.60
2022-09-15T23:01:20.808Z,26.60
2022-09-15T23:03:53.253Z,26.50
2022-09-15T23:06:21.567Z,26.50
2022-09-15T23:08:57.340Z,26.50
2022-09-15T23:11:26.172Z,26.50
2022-09-15T23:13:54.061Z,26.50
2022-09-15T23:16:22.458Z,26.40
2022-09-15T23:18:50.625Z,26.40
2022-09-15T23:21:18.123Z,26.40
2022-09-15T23:23:49.092Z,26.40
2022-09-15T23:26:18.674Z,26.40
2022-09-15T23:28:45.935Z,26.50
2022-09-15T23:31:13.931Z,26.40
2022-09-15T23:33:41.592Z,26.40
2022-09-15T23:36:11.922Z,26.40
2022-09-15T23:38:41.052Z,26.40
2022-09-15T23:41:09.382Z,26.30
2022-09-15T23:43:36.508Z,26.30
2022-09-15T23:46:04.187Z,26.20
2022-09-15T23:48:34.612Z,26.20
2022-09-15T23:51:02.076Z,26.20
2022-09-15T23:53:29.715Z,26.10
2022-09-15T23:55:57.046Z,26.10
2022-09-15T23:58:24.869Z,26.10
